Time;durP1;ratioP1;P1;durP2;ratioP2;P2;SDS_P1;SDS_P2;PMS_P1;PMS_P2;Temp;Humidity;BMP_temperature;BMP_pressure;BME280_temperature;BME280_humidity;BME280_pressure;Samples;Min_cycle;Max_cycle;Signal;HPM_P1;HPM_P2
2023/09/12 00:01:12;;;;;;;14.90;8.38;;;;;;;;;;5074419;28;20053;-91
2023/09/12 00:03:39;;;;;;;12.15;7.47;;;;;;;;;;5075728;28;20067;-90
2023/09/12 00:06:08;;;;;;;11.48;8.15;;;;;;;;;;5091785;28;20047;-91
2023/09/12 00:08:35;;;;;;;10.93;7.55;;;;;;;;;;5093977;28;20048;-90
2023/09/12 00:11:11;;;;;;;13.80;9.23;;;;;;;;;;5062364;28;20044;-91
2023/09/12 00:13:39;;;;;;;12.18;8.05;;;;;;;;;;5086612;28;20051;-91
2023/09/12 00:16:09;;;;;;;12.70;8.18;;;;;;;;;;5072445;28;20044;-91
2023/09/12 00:18:36;;;;;;;11.65;8.70;;;;;;;;;;5060845;28;20048;-90
2023/09/12 00:21:04;;;;;;;14.43;8.68;;;;;;;;;;5068247;28;20044;-90
2023/09/12 00:23:33;;;;;;;16.85;8.65;;;;;;;;;;5059201;28;20052;-90
2023/09/12 00:26:00;;;;;;;15.10;8.75;;;;;;;;;;5086370;28;20053;-91
2023/09/12 00:28:28;;;;;;;10.77;7.53;;;;;;;;;;5084743;28;20060;-91
2023/09/12 00:30:56;;;;;;;10.05;9.00;;;;;;;;;;5073526;28;20045;-90
2023/09/12 00:33:24;;;;;;;9.13;7.43;;;;;;;;;;5073590;28;20045;-91
2023/09/12 00:35:53;;;;;;;14.82;8.90;;;;;;;;;;5072001;28;20044;-91
2023/09/12 00:38:20;;;;;;;14.65;8.73;;;;;;;;;;5076343;28;20056;-90
2023/09/12 00:40:49;;;;;;;9.75;8.32;;;;;;;;;;5070754;28;20401;-91
2023/09/12 00:43:17;;;;;;;13.05;9.50;;;;;;;;;;5064608;28;20052;-90
2023/09/12 00:45:46;;;;;;;11.90;8.43;;;;;;;;;;5086376;28;20501;-90
2023/09/12 00:48:14;;;;;;;10.50;7.10;;;;;;;;;;5077416;28;20036;-90
2023/09/12 00:50:42;;;;;;;8.48;7.60;;;;;;;;;;5069582;28;20059;-90
2023/09/12 00:53:09;;;;;;;11.65;8.60;;;;;;;;;;5092208;28;20492;-91
2023/09/12 00:55:38;;;;;;;11.30;8.73;;;;;;;;;;5074723;28;20044;-90
2023/09/12 00:58:09;;;;;;;8.40;7.30;;;;;;;;;;5074278;28;20048;-91
2023/09/12 01:00:37;;;;;;;11.95;9.25;;;;;;;;;;5061844;28;20044;-90
2023/09/12 01:03:05;;;;;;;12.70;9.05;;;;;;;;;;5060426;28;20044;-90
2023/09/12 01:05:33;;;;;;;17.13;9.57;;;;;;;;;;5090761;28;20047;-91
2023/09/12 01:08:01;;;;;;;9.75;7.47;;;;;;;;;;5089184;28;20043;-90
2023/09/12 01:10:29;;;;;;;9.82;7.75;;;;;;;;;;5074294;28;20039;-90
2023/09/12 01:12:56;;;;;;;8.70;7.55;;;;;;;;;;5081698;28;20040;-90
2023/09/12 01:15:25;;;;;;;11.32;8.05;;;;;;;;;;5060292;28;20052;-90
2023/09/12 01:17:52;;;;;;;18.83;9.88;;;;;;;;;;5071524;28;20051;-91
2023/09/12 01:20:23;;;;;;;11.25;8.25;;;;;;;;;;5056680;28;20048;-90
2023/09/12 01:22:58;;;;;;;16.55;9.52;;;;;;;;;;5089677;28;20048;-91
2023/09/12 01:25:51;;;;;;;9.68;7.28;;;;;;;;;;5078470;28;20497;-90
2023/09/12 01:28:25;;;;;;;15.35;8.05;;;;;;;;;;5067785;28;20063;-90
2023/09/12 01:30:53;;;;;;;15.52;8.88;;;;;;;;;;5062135;28;20055;-90
2023/09/12 01:33:21;;;;;;;18.08;10.20;;;;;;;;;;5075907;28;20044;-91
2023/09/12 01:35:49;;;;;;;10.13;8.05;;;;;;;;;;5067688;28;20052;-90
2023/09/12 01:38:16;;;;;;;15.30;8.02;;;;;;;;;;5069913;28;20048;-91
2023/09/12 01:40:45;;;;;;;15.15;10.05;;;;;;;;;;5080590;28;20047;-90
2023/09/12 01:43:18;;;;;;;16.63;7.28;;;;;;;;;;5087498;28;20047;-90
2023/09/12 01:45:48;;;;;;;10.05;7.80;;;;;;;;;;5081964;28;20048;-90
2023/09/12 01:48:20;;;;;;;9.52;8.13;;;;;;;;;;5078677;28;20628;-90
2023/09/12 01:50:48;;;;;;;13.30;9.65;;;;;;;;;;5055542;28;20520;-90
2023/09/12 01:53:16;;;;;;;13.50;8.02;;;;;;;;;;5086396;28;20583;-91
2023/09/12 01:55:45;;;;;;;9.43;7.78;;;;;;;;;;5078554;28;20078;-90
2023/09/12 01:58:13;;;;;;;20.58;10.15;;;;;;;;;;5068761;28;20053;-90
2023/09/12 02:00:41;;;;;;;13.27;9.35;;;;;;;;;;5075753;28;20044;-90
2023/09/12 02:03:13;;;;;;;11.55;8.80;;;;;;;;;;5082181;28;20047;-90
2023/09/12 02:05:41;;;;;;;16.75;8.20;;;;;;;;;;5086417;28;20035;-90
2023/09/12 02:08:09;;;;;;;10.38;7.97;;;;;;;;;;5073053;28;20047;-90
2023/09/12 02:10:36;;;;;;;14.50;9.07;;;;;;;;;;5065218;28;20112;-90
2023/09/12 02:13:05;;;;;;;17.55;8.25;;;;;;;;;;5067206;28;20036;-90
2023/09/12 02:15:32;;;;;;;10.73;8.25;;;;;;;;;;5081612;28;20439;-90
2023/09/12 02:17:59;;;;;;;12.82;9.88;;;;;;;;;;5063406;28;20432;-92
2023/09/12 02:20:33;;;;;;;16.15;10.55;;;;;;;;;;5088559;28;20047;-90
2023/09/12 02:23:00;;;;;;;14.45;7.75;;;;;;;;;;5063683;28;20055;-90
2023/09/12 02:25:28;;;;;;;12.60;8.18;;;;;;;;;;5087530;28;20501;-90
2023/09/12 02:27:56;;;;;;;12.50;8.45;;;;;;;;;;5067104;28;20059;-90
2023/09/12 02:30:23;;;;;;;11.15;8.85;;;;;;;;;;5083253;28;20053;-90
2023/09/12 02:32:53;;;;;;;17.13;9.07;;;;;;;;;;5087417;28;20040;-91
2023/09/12 02:35:20;;;;;;;13.77;8.75;;;;;;;;;;5065380;28;20059;-90
2023/09/12 02:37:49;;;;;;;10.73;7.55;;;;;;;;;;5093375;28;20052;-90
2023/09/12 02:40:18;;;;;;;11.55;7.53;;;;;;;;;;5055663;28;20054;-90
2023/09/12 02:42:47;;;;;;;15.00;7.90;;;;;;;;;;5079699;28;20044;-89
2023/09/12 02:45:15;;;;;;;12.60;9.57;;;;;;;;;;5086771;28;20054;-90
2023/09/12 02:47:43;;;;;;;10.68;7.75;;;;;;;;;;5086406;28;20044;-90
2023/09/12 02:50:11;;;;;;;10.02;8.90;;;;;;;;;;5099039;28;20040;-90
2023/09/12 02:52:38;;;;;;;13.50;8.27;;;;;;;;;;5062149;28;20397;-90
2023/09/12 02:55:08;;;;;;;16.25;9.10;;;;;;;;;;5064156;28;20048;-90
2023/09/12 02:57:35;;;;;;;12.45;8.18;;;;;;;;;;5060913;28;20060;-90
2023/09/12 03:00:06;;;;;;;12.68;8.57;;;;;;;;;;5065146;28;20636;-90
2023/09/12 03:02:34;;;;;;;16.30;8.10;;;;;;;;;;5075513;28;20045;-90
2023/09/12 03:05:04;;;;;;;12.60;8.15;;;;;;;;;;5067768;28;20040;-90
2023/09/12 03:07:33;;;;;;;11.90;8.38;;;;;;;;;;5088155;28;20515;-89
2023/09/12 03:10:01;;;;;;;10.68;8.10;;;;;;;;;;5083810;28;20055;-90
2023/09/12 03:12:30;;;;;;;10.45;6.90;;;;;;;;;;5081414;28;20047;-90
2023/09/12 03:14:58;;;;;;;10.43;7.63;;;;;;;;;;5063923;28;20051;-91
2023/09/12 03:17:26;;;;;;;16.60;9.93;;;;;;;;;;5060124;28;20036;-90
2023/09/12 03:19:56;;;;;;;11.00;9.70;;;;;;;;;;5068308;28;20082;-91
2023/09/12 03:22:24;;;;;;;14.25;8.38;;;;;;;;;;5073030;28;20040;-91
2023/09/12 03:24:51;;;;;;;10.98;9.38;;;;;;;;;;5080660;28;20041;-92
2023/09/12 03:27:23;;;;;;;11.43;8.70;;;;;;;;;;5059708;28;20044;-91
2023/09/12 03:29:52;;;;;;;12.07;9.43;;;;;;;;;;5078389;28;20040;-91
2023/09/12 03:32:20;;;;;;;13.75;10.60;;;;;;;;;;5076544;28;20048;-90
2023/09/12 03:34:48;;;;;;;9.15;8.20;;;;;;;;;;5084609;28;20500;-90
2023/09/12 03:37:15;;;;;;;9.05;7.97;;;;;;;;;;5064249;28;20067;-90
2023/09/12 03:39:45;;;;;;;12.23;8.95;;;;;;;;;;5068804;28;20054;-90
2023/09/12 03:42:12;;;;;;;10.55;7.97;;;;;;;;;;5088902;28;20040;-90
2023/09/12 03:44:40;;;;;;;10.65;6.80;;;;;;;;;;5086938;28;20044;-90
2023/09/12 03:47:14;;;;;;;12.18;9.35;;;;;;;;;;5095298;28;20416;-91
2023/09/12 03:49:41;;;;;;;16.42;10.20;;;;;;;;;;5083699;28;20047;-91
2023/09/12 03:52:11;;;;;;;11.88;9.18;;;;;;;;;;5071302;28;20036;-91
2023/09/12 03:54:42;;;;;;;13.82;10.00;;;;;;;;;;5071539;28;20079;-90
2023/09/12 03:57:09;;;;;;;18.08;9.07;;;;;;;;;;5074863;28;20040;-89
2023/09/12 03:59:37;;;;;;;12.80;8.02;;;;;;;;;;5097529;28;20035;-90
2023/09/12 04:02:05;;;;;;;13.88;8.18;;;;;;;;;;5073159;28;20134;-89
2023/09/12 04:04:34;;;;;;;12.88;9.20;;;;;;;;;;5097103;28;20059;-91
2023/09/12 04:07:02;;;;;;;16.80;10.90;;;;;;;;;;5073645;28;20052;-89
2023/09/12 04:09:29;;;;;;;13.98;8.00;;;;;;;;;;5074308;28;20044;-89
2023/09/12 04:11:57;;;;;;;13.93;8.05;;;;;;;;;;5093742;28;20396;-89
2023/09/12 04:14:24;;;;;;;16.65;8.50;;;;;;;;;;5086261;28;20052;-90
2023/09/12 04:16:51;;;;;;;9.98;8.45;;;;;;;;;;5094063;28;20047;-90
2023/09/12 04:19:19;;;;;;;12.50;8.20;;;;;;;;;;5066042;28;20068;-90
2023/09/12 04:21:52;;;;;;;17.45;10.65;;;;;;;;;;5073709;28;20052;-90
2023/09/12 04:24:22;;;;;;;12.00;7.90;;;;;;;;;;5094956;28;20048;-91
2023/09/12 04:26:52;;;;;;;9.68;7.68;;;;;;;;;;5088387;28;20052;-91
2023/09/12 04:29:20;;;;;;;14.55;9.57;;;;;;;;;;5082182;28;20045;-91
2023/09/12 04:31:47;;;;;;;11.18;7.95;;;;;;;;;;5066056;28;20510;-90
2023/09/12 04:34:15;;;;;;;9.45;7.57;;;;;;;;;;5065057;28;20451;-90
2023/09/12 04:36:43;;;;;;;12.85;8.15;;;;;;;;;;5068163;28;20056;-90
2023/09/12 04:39:12;;;;;;;13.15;9.05;;;;;;;;;;5085846;28;20044;-91
2023/09/12 04:41:42;;;;;;;10.63;9.02;;;;;;;;;;5084967;28;20040;-91
2023/09/12 04:44:11;;;;;;;11.45;8.25;;;;;;;;;;5058932;28;20440;-90
2023/09/12 04:46:39;;;;;;;7.90;6.90;;;;;;;;;;5075564;28;20048;-89
2023/09/12 04:49:06;;;;;;;19.42;10.70;;;;;;;;;;5075975;28;20424;-90
2023/09/12 04:51:34;;;;;;;15.05;9.85;;;;;;;;;;5070186;28;20052;-90
2023/09/12 04:54:05;;;;;;;12.27;8.55;;;;;;;;;;5060881;28;20079;-90
2023/09/12 04:56:36;;;;;;;12.10;7.78;;;;;;;;;;5079109;28;20056;-91
2023/09/12 04:59:03;;;;;;;9.88;7.13;;;;;;;;;;5074409;28;20505;-90
2023/09/12 05:01:31;;;;;;;16.38;8.93;;;;;;;;;;5072186;28;20052;-91
2023/09/12 05:03:58;;;;;;;13.18;7.78;;;;;;;;;;5073511;28;20052;-91
2023/09/12 05:06:26;;;;;;;11.95;7.85;;;;;;;;;;5079919;28;20048;-90
2023/09/12 05:08:53;;;;;;;11.95;10.00;;;;;;;;;;5077876;28;20060;-90
2023/09/12 05:11:20;;;;;;;11.25;9.98;;;;;;;;;;5081918;28;20496;-90
2023/09/12 05:13:51;;;;;;;12.02;9.50;;;;;;;;;;5054701;28;20051;-90
2023/09/12 05:16:20;;;;;;;11.30;8.70;;;;;;;;;;5081737;28;20416;-90
2023/09/12 05:18:49;;;;;;;9.90;8.25;;;;;;;;;;5069555;28;20534;-90
2023/09/12 05:21:16;;;;;;;11.50;7.90;;;;;;;;;;5066047;28;20059;-90
2023/09/12 05:23:44;;;;;;;12.90;9.13;;;;;;;;;;5063323;28;20056;-89
2023/09/12 05:26:11;;;;;;;10.82;8.55;;;;;;;;;;5060191;28;20051;-89
2023/09/12 05:28:38;;;;;;;24.95;11.68;;;;;;;;;;5079551;28;20051;-90
2023/09/12 05:31:07;;;;;;;10.88;9.52;;;;;;;;;;5077238;28;20048;-90
2023/09/12 05:33:37;;;;;;;13.05;9.55;;;;;;;;;;5079677;28;20054;-90
2023/09/12 05:36:05;;;;;;;7.70;6.90;;;;;;;;;;5069509;28;20051;-90
2023/09/12 05:38:32;;;;;;;10.32;8.55;;;;;;;;;;5080018;28;20048;-89
2023/09/12 05:41:00;;;;;;;14.75;9.00;;;;;;;;;;5084017;28;20044;-89
2023/09/12 05:43:27;;;;;;;11.70;9.23;;;;;;;;;;5087120;28;20035;-89
2023/09/12 05:45:57;;;;;;;13.32;9.50;;;;;;;;;;5082796;28;20278;-92
2023/09/12 05:48:40;;;;;;;12.57;7.43;;;;;;;;;;5077764;28;20040;-93
2023/09/12 05:51:07;;;;;;;10.73;8.45;;;;;;;;;;5083929;28;20052;-90
2023/09/12 05:53:35;;;;;;;13.63;8.95;;;;;;;;;;5076391;28;20051;-90
2023/09/12 05:56:03;;;;;;;20.70;10.10;;;;;;;;;;5086756;28;20043;-89
2023/09/12 05:58:30;;;;;;;13.30;7.95;;;;;;;;;;5078358;28;20408;-90
2023/09/12 06:01:00;;;;;;;12.00;10.50;;;;;;;;;;5072728;28;20384;-89
2023/09/12 06:03:28;;;;;;;10.60;7.50;;;;;;;;;;5078675;28;20044;-89
2023/09/12 06:05:58;;;;;;;16.80;10.07;;;;;;;;;;5079784;28;20052;-90
2023/09/12 06:08:25;;;;;;;13.13;10.20;;;;;;;;;;5073747;28;20040;-90
2023/09/12 06:10:53;;;;;;;15.45;10.88;;;;;;;;;;5081750;28;20045;-90
2023/09/12 06:13:21;;;;;;;12.73;9.65;;;;;;;;;;5091316;28;20440;-90
2023/09/12 06:15:52;;;;;;;10.90;8.73;;;;;;;;;;5086297;28;20063;-90
2023/09/12 06:18:24;;;;;;;10.40;7.35;;;;;;;;;;5085167;28;20048;-90
2023/09/12 06:20:54;;;;;;;13.73;8.50;;;;;;;;;;5094762;27;20048;-89
2023/09/12 06:23:25;;;;;;;14.55;9.27;;;;;;;;;;5065045;28;20056;-90
2023/09/12 06:25:56;;;;;;;12.38;9.18;;;;;;;;;;5081558;28;20087;-90
2023/09/12 06:28:27;;;;;;;13.90;7.97;;;;;;;;;;5074744;28;20508;-90
2023/09/12 06:30:56;;;;;;;;;;;;;;;;;;5082727;28;20049;-89
2023/09/12 06:33:24;;;;;;;12.10;7.95;;;;;;;;;;5088273;28;20554;-90
2023/09/12 06:35:52;;;;;;;13.75;9.18;;;;;;;;;;5070825;28;20047;-90
2023/09/12 06:38:23;;;;;;;12.02;8.52;;;;;;;;;;5085345;28;20055;-90
2023/09/12 06:40:52;;;;;;;11.05;7.82;;;;;;;;;;5078577;28;20064;-90
2023/09/12 06:43:19;;;;;;;13.85;8.70;;;;;;;;;;5083390;28;20048;-90
2023/09/12 06:45:47;;;;;;;9.30;8.27;;;;;;;;;;5082400;28;20044;-90
2023/09/12 06:48:17;;;;;;;10.30;8.63;;;;;;;;;;5077140;28;20527;-90
2023/09/12 06:50:46;;;;;;;11.63;8.45;;;;;;;;;;5084523;28;20047;-90
2023/09/12 06:53:14;;;;;;;15.43;8.43;;;;;;;;;;5084108;28;20415;-90
2023/09/12 06:55:41;;;;;;;17.38;10.00;;;;;;;;;;5091604;28;20039;-90
2023/09/12 06:58:12;;;;;;;12.55;8.65;;;;;;;;;;5096063;28;20071;-90
2023/09/12 07:00:42;;;;;;;9.75;7.40;;;;;;;;;;5070285;28;20056;-90
2023/09/12 07:03:10;;;;;;;9.27;7.13;;;;;;;;;;5080224;28;20056;-90
2023/09/12 07:05:40;;;;;;;10.25;6.07;;;;;;;;;;5098576;28;20044;-91
2023/09/12 07:08:09;;;;;;;11.43;6.90;;;;;;;;;;5063294;28;20052;-91
2023/09/12 07:10:37;;;;;;;9.07;7.65;;;;;;;;;;5067741;28;20056;-91
2023/09/12 07:13:04;;;;;;;12.27;7.72;;;;;;;;;;5076784;28;20071;-92
2023/09/12 07:15:36;;;;;;;11.52;7.00;;;;;;;;;;5064391;28;20064;-90
2023/09/12 07:18:05;;;;;;;11.70;7.47;;;;;;;;;;5070660;28;20067;-91
2023/09/12 07:20:34;;;;;;;12.30;6.80;;;;;;;;;;5076849;28;20052;-91
2023/09/12 07:23:02;;;;;;;13.40;6.75;;;;;;;;;;5091818;28;20420;-91
2023/09/12 07:25:29;;;;;;;9.10;7.03;;;;;;;;;;5069544;28;20044;-91
2023/09/12 07:27:59;;;;;;;12.10;7.15;;;;;;;;;;5089986;28;20246;-91
2023/09/12 07:30:28;;;;;;;9.07;6.20;;;;;;;;;;5070179;28;20052;-90
2023/09/12 07:33:09;;;;;;;10.15;6.45;;;;;;;;;;5065562;28;20043;-91
2023/09/12 07:35:39;;;;;;;9.73;6.13;;;;;;;;;;5082863;28;20411;-91
2023/09/12 07:38:07;;;;;;;13.95;6.40;;;;;;;;;;5091254;28;20052;-91
2023/09/12 07:40:34;;;;;;;8.00;5.68;;;;;;;;;;5068174;28;20056;-91
2023/09/12 07:43:02;;;;;;;6.05;5.05;;;;;;;;;;5084469;28;20040;-91
2023/09/12 07:45:31;;;;;;;12.02;7.00;;;;;;;;;;5087903;28;20044;-91
2023/09/12 07:48:06;;;;;;;8.10;5.50;;;;;;;;;;5067190;28;20059;-91
2023/09/12 07:50:33;;;;;;;10.77;6.38;;;;;;;;;;5086182;28;20052;-91
2023/09/12 07:53:01;;;;;;;8.25;6.38;;;;;;;;;;5092956;28;20040;-91
2023/09/12 07:55:30;;;;;;;7.80;5.50;;;;;;;;;;5072580;28;20044;-91
2023/09/12 07:57:58;;;;;;;8.43;6.30;;;;;;;;;;5086690;28;20052;-90
2023/09/12 08:00:25;;;;;;;10.05;7.40;;;;;;;;;;5091575;28;20040;-91
2023/09/12 08:02:53;;;;;;;8.50;6.53;;;;;;;;;;5091449;28;20075;-91
2023/09/12 08:05:21;;;;;;;12.00;6.22;;;;;;;;;;5081867;28;20044;-90
2023/09/12 08:07:49;;;;;;;8.52;5.95;;;;;;;;;;5079611;28;20054;-90
2023/09/12 08:10:19;;;;;;;11.45;6.50;;;;;;;;;;5107741;27;20064;-91
2023/09/12 08:12:46;;;;;;;19.33;6.50;;;;;;;;;;5090541;28;20048;-91
2023/09/12 08:15:13;;;;;;;13.82;5.97;;;;;;;;;;5094546;28;20416;-90
2023/09/12 08:17:43;;;;;;;8.80;6.60;;;;;;;;;;5081392;28;20052;-91
2023/09/12 08:20:11;;;;;;;9.38;5.95;;;;;;;;;;5092309;28;20044;-91
2023/09/12 08:22:40;;;;;;;7.18;6.20;;;;;;;;;;5092867;28;20052;-90
2023/09/12 08:25:07;;;;;;;8.40;5.90;;;;;;;;;;5092146;28;20040;-91
2023/09/12 08:27:35;;;;;;;17.00;8.88;;;;;;;;;;5072523;28;20519;-91
2023/09/12 08:30:03;;;;;;;12.63;6.10;;;;;;;;;;5092480;28;20040;-91
2023/09/12 08:32:33;;;;;;;8.73;6.32;;;;;;;;;;5093403;28;20058;-91
2023/09/12 08:35:03;;;;;;;10.43;6.20;;;;;;;;;;5097137;28;20504;-90
2023/09/12 08:37:33;;;;;;;10.48;7.28;;;;;;;;;;5072368;28;20386;-91
2023/09/12 08:40:07;;;;;;;12.27;6.22;;;;;;;;;;5078165;28;20052;-91
2023/09/12 08:42:40;;;;;;;12.88;6.30;;;;;;;;;;5096317;28;20044;-91
2023/09/12 08:45:10;;;;;;;7.72;5.90;;;;;;;;;;5079529;28;20059;-92
2023/09/12 08:47:42;;;;;;;13.52;5.85;;;;;;;;;;5078741;28;20531;-91
2023/09/12 08:50:12;;;;;;;9.88;6.18;;;;;;;;;;5074699;28;20851;-91
2023/09/12 08:52:41;;;;;;;12.70;8.68;;;;;;;;;;5085174;28;20508;-92
2023/09/12 08:55:11;;;;;;;18.05;7.00;;;;;;;;;;5078502;28;20493;-91
2023/09/12 08:57:41;;;;;;;9.10;7.03;;;;;;;;;;5085455;28;20056;-91
2023/09/12 09:00:12;;;;;;;11.75;6.30;;;;;;;;;;5095906;28;20052;-91
2023/09/12 09:02:40;;;;;;;11.55;8.25;;;;;;;;;;5085425;28;20048;-92
2023/09/12 09:05:09;;;;;;;9.15;6.18;;;;;;;;;;5080124;28;20059;-92
2023/09/12 09:07:38;;;;;;;8.77;6.78;;;;;;;;;;5071875;28;20052;-92
2023/09/12 09:10:07;;;;;;;6.82;6.03;;;;;;;;;;5071444;28;20048;-91
2023/09/12 09:12:37;;;;;;;19.23;7.63;;;;;;;;;;5090202;28;20420;-91
2023/09/12 09:15:27;;;;;;;16.35;7.90;;;;;;;;;;5087911;28;20036;-91
2023/09/12 09:17:55;;;;;;;9.32;7.45;;;;;;;;;;5065370;28;20054;-92
2023/09/12 09:20:24;;;;;;;12.82;7.80;;;;;;;;;;5090995;28;20059;-91
2023/09/12 09:22:59;;;;;;;11.68;8.27;;;;;;;;;;5084935;28;20489;-90
2023/09/12 09:25:26;;;;;;;14.48;8.48;;;;;;;;;;5082482;28;20362;-90
2023/09/12 09:27:57;;;;;;;13.82;7.32;;;;;;;;;;5089822;28;20056;-92
2023/09/12 09:30:41;;;;;;;17.30;7.00;;;;;;;;;;5088523;28;20040;-91
2023/09/12 09:33:08;;;;;;;12.55;6.97;;;;;;;;;;5090249;28;20052;-91
2023/09/12 09:35:36;;;;;;;14.43;6.88;;;;;;;;;;5093243;28;21772;-92
2023/09/12 09:38:04;;;;;;;12.60;7.75;;;;;;;;;;5086218;28;20059;-91
2023/09/12 09:40:33;;;;;;;8.73;6.65;;;;;;;;;;5085041;28;20260;-91
2023/09/12 09:43:02;;;;;;;18.05;8.73;;;;;;;;;;5057760;28;20052;-91
2023/09/12 09:45:31;;;;;;;9.65;7.95;;;;;;;;;;5062376;28;20123;-91
2023/09/12 09:48:00;;;;;;;13.30;8.15;;;;;;;;;;5090619;28;20045;-91
2023/09/12 09:50:28;;;;;;;11.95;8.30;;;;;;;;;;5086942;28;20052;-91
2023/09/12 09:52:57;;;;;;;11.82;7.28;;;;;;;;;;5082680;28;20048;-91
2023/09/12 09:55:26;;;;;;;8.77;6.90;;;;;;;;;;5091050;28;20473;-91
2023/09/12 09:57:56;;;;;;;9.00;8.10;;;;;;;;;;5070207;28;20432;-92
2023/09/12 10:00:30;;;;;;;14.45;9.05;;;;;;;;;;5089036;28;20040;-92
2023/09/12 10:02:58;;;;;;;15.10;7.60;;;;;;;;;;5085455;28;20044;-91
2023/09/12 10:05:26;;;;;;;12.02;7.45;;;;;;;;;;5085885;28;20069;-92
2023/09/12 10:07:56;;;;;;;10.50;8.52;;;;;;;;;;5081024;28;20047;-92
2023/09/12 10:10:25;;;;;;;14.73;7.72;;;;;;;;;;5091120;28;20059;-92
2023/09/12 10:12:57;;;;;;;10.80;7.90;;;;;;;;;;5092119;28;20745;-91
2023/09/12 10:15:31;;;;;;;15.82;8.13;;;;;;;;;;5094128;28;20039;-91
2023/09/12 10:18:00;;;;;;;8.82;6.93;;;;;;;;;;5087951;28;20049;-92
2023/09/12 10:20:46;;;;;;;12.85;7.72;;;;;;;;;;5079595;28;20504;-91
2023/09/12 10:23:58;;;;;;;20.48;8.55;;;;;;;;;;5082807;28;20052;-92
2023/09/12 10:26:30;;;;;;;16.73;9.05;;;;;;;;;;5093207;28;20048;-92
2023/09/12 10:29:00;;;;;;;10.30;8.07;;;;;;;;;;5070339;28;20040;-91
2023/09/12 10:31:30;;;;;;;13.60;7.57;;;;;;;;;;5071733;28;20052;-91
2023/09/12 10:34:02;;;;;;;16.40;7.70;;;;;;;;;;5086157;28;20075;-93
2023/09/12 10:36:30;;;;;;;10.85;8.43;;;;;;;;;;5094614;28;20072;-92
2023/09/12 10:38:58;;;;;;;12.15;7.88;;;;;;;;;;5077087;28;20778;-92
2023/09/12 10:41:40;;;;;;;14.98;7.43;;;;;;;;;;5059572;28;20041;-92
2023/09/12 10:44:11;;;;;;;12.05;8.43;;;;;;;;;;5087974;28;20048;-92
2023/09/12 10:46:59;;;;;;;10.40;7.53;;;;;;;;;;5088126;28;20052;-92
2023/09/12 10:49:40;;;;;;;8.10;7.30;;;;;;;;;;5079438;28;20608;-92
2023/09/12 10:52:10;;;;;;;10.65;6.40;;;;;;;;;;5072070;28;20385;-93
2023/09/12 10:54:41;;;;;;;8.00;7.18;;;;;;;;;;5090574;28;20051;-92
2023/09/12 10:57:13;;;;;;;9.25;7.65;;;;;;;;;;5081741;28;20044;-92
2023/09/12 11:00:11;;;;;;;9.83;7.27;;;;;;;;;;5093878;28;20389;-92
2023/09/12 11:02:41;;;;;;;8.70;6.50;;;;;;;;;;5069740;28;20532;-92
2023/09/12 11:05:39;;;;;;;8.05;7.25;;;;;;;;;;5081794;28;20059;-92
2023/09/12 11:08:08;;;;;;;8.50;7.70;;;;;;;;;;5085477;28;20059;-92
2023/09/12 11:10:40;;;;;;;12.27;7.72;;;;;;;;;;5068134;28;20059;-92
2023/09/12 11:13:18;;;;;;;9.40;7.55;;;;;;;;;;5089897;28;20055;-92
2023/09/12 11:16:11;;;;;;;9.23;6.80;;;;;;;;;;5085369;28;20046;-92
2023/09/12 11:19:12;;;;;;;10.13;6.80;;;;;;;;;;5071917;28;20424;-92
2023/09/12 11:21:41;;;;;;;9.93;7.07;;;;;;;;;;5091628;28;20051;-92
2023/09/12 11:24:09;;;;;;;11.63;6.57;;;;;;;;;;5103956;28;20617;-92
2023/09/12 11:26:36;;;;;;;9.73;6.30;;;;;;;;;;5072179;28;20068;-92
2023/09/12 11:29:14;;;;;;;14.13;6.70;;;;;;;;;;5090182;28;20055;-92
2023/09/12 11:32:06;;;;;;;10.43;6.97;;;;;;;;;;5082065;28;20051;-92
2023/09/12 11:35:09;;;;;;;7.07;6.47;;;;;;;;;;5086253;28;20055;-92
2023/09/12 11:37:59;;;;;;;7.05;6.25;;;;;;;;;;5098567;28;20098;-92
2023/09/12 11:43:48;;;;;;;8.48;6.95;;;;;;;;;;5083991;28;20507;-92
2023/09/12 11:46:23;;;;;;;10.70;7.60;;;;;;;;;;5082591;28;20067;-92
2023/09/12 11:49:02;;;;;;;9.27;6.78;;;;;;;;;;5093669;28;20508;-92
2023/09/12 11:51:31;;;;;;;8.02;6.35;;;;;;;;;;5092118;28;20085;-92
2023/09/12 11:54:01;;;;;;;9.07;5.80;;;;;;;;;;5094757;28;20492;-92
2023/09/12 11:56:30;;;;;;;10.85;6.57;;;;;;;;;;5080816;28;20082;-92
2023/09/12 11:59:02;;;;;;;8.00;7.28;;;;;;;;;;5080695;28;20432;-92
2023/09/12 12:01:32;;;;;;;8.57;6.72;;;;;;;;;;5074487;28;20052;-92
2023/09/12 12:04:06;;;;;;;10.18;6.28;;;;;;;;;;5086491;28;20055;-92
2023/09/12 12:06:56;;;;;;;7.60;6.25;;;;;;;;;;5089963;28;20040;-92
2023/09/12 12:09:54;;;;;;;7.38;6.72;;;;;;;;;;5085521;28;20346;-92
2023/09/12 12:12:25;;;;;;;7.30;6.60;;;;;;;;;;5077759;28;20052;-92
2023/09/12 12:14:55;;;;;;;7.82;6.85;;;;;;;;;;5086965;28;20513;-92
2023/09/12 12:17:22;;;;;;;9.88;6.07;;;;;;;;;;5056548;28;20047;-93
2023/09/12 12:19:50;;;;;;;8.32;6.30;;;;;;;;;;5067307;28;20055;-92
2023/09/12 12:22:17;;;;;;;10.45;7.15;;;;;;;;;;5085350;28;20059;-92
2023/09/12 12:24:47;;;;;;;7.43;6.72;;;;;;;;;;5079327;28;20044;-92
2023/09/12 12:27:17;;;;;;;12.32;6.32;;;;;;;;;;5078613;28;20055;-93
2023/09/12 12:29:44;;;;;;;8.85;6.72;;;;;;;;;;5079621;28;20416;-92
2023/09/12 12:32:12;;;;;;;7.70;6.93;;;;;;;;;;5081341;28;20489;-92
2023/09/12 12:34:40;;;;;;;10.32;6.90;;;;;;;;;;5071437;28;20048;-92
2023/09/12 12:37:07;;;;;;;6.65;6.05;;;;;;;;;;5067297;28;20099;-93
2023/09/12 12:39:35;;;;;;;8.18;6.00;;;;;;;;;;5084711;28;20044;-93
2023/09/12 12:42:03;;;;;;;9.57;6.63;;;;;;;;;;5084288;28;20062;-92
2023/09/12 12:44:40;;;;;;;6.68;5.95;;;;;;;;;;5070887;28;20059;-92
2023/09/12 12:47:09;;;;;;;10.90;7.15;;;;;;;;;;5083000;28;20048;-92
2023/09/12 12:49:39;;;;;;;7.85;6.10;;;;;;;;;;5084372;28;20052;-93
2023/09/12 12:52:06;;;;;;;13.05;7.43;;;;;;;;;;5092149;28;20048;-93
2023/09/12 12:54:34;;;;;;;8.82;5.70;;;;;;;;;;5079197;28;20048;-92
2023/09/12 12:57:02;;;;;;;7.20;6.40;;;;;;;;;;5074927;28;20051;-92
2023/09/12 12:59:34;;;;;;;7.30;6.60;;;;;;;;;;5086708;28;20048;-92
2023/09/12 13:02:03;;;;;;;8.40;5.60;;;;;;;;;;5091931;28;20056;-93
2023/09/12 13:04:37;;;;;;;7.80;6.13;;;;;;;;;;5073081;28;20059;-92
2023/09/12 13:07:05;;;;;;;7.30;6.35;;;;;;;;;;5075180;28;20409;-93
2023/09/12 13:09:33;;;;;;;9.52;6.63;;;;;;;;;;5081606;28;20058;-92
2023/09/12 13:12:00;;;;;;;8.63;6.03;;;;;;;;;;5085211;28;20055;-93
2023/09/12 13:14:30;;;;;;;7.20;6.60;;;;;;;;;;5088849;28;20765;-92
2023/09/12 13:16:58;;;;;;;9.82;6.85;;;;;;;;;;5063934;28;20537;-92
2023/09/12 13:19:27;;;;;;;8.30;6.53;;;;;;;;;;5067583;28;20048;-92
2023/09/12 13:21:55;;;;;;;7.63;6.57;;;;;;;;;;5074834;28;20519;-93
2023/09/12 13:24:23;;;;;;;14.02;6.90;;;;;;;;;;5065918;28;20557;-93
2023/09/12 13:26:53;;;;;;;7.28;5.75;;;;;;;;;;5070263;28;20060;-91
2023/09/12 13:29:20;;;;;;;15.50;6.05;;;;;;;;;;5089404;28;20500;-92
2023/09/12 13:31:48;;;;;;;9.07;6.75;;;;;;;;;;5092301;28;20044;-92
2023/09/12 13:34:18;;;;;;;8.13;6.63;;;;;;;;;;5070728;28;20083;-92
2023/09/12 13:36:47;;;;;;;7.40;5.50;;;;;;;;;;5070029;28;20627;-93
2023/09/12 13:39:14;;;;;;;8.27;5.85;;;;;;;;;;5073054;28;20055;-93
2023/09/12 13:41:42;;;;;;;8.32;5.90;;;;;;;;;;5089337;28;20607;-93
2023/09/12 13:44:10;;;;;;;8.27;5.90;;;;;;;;;;5064326;28;20046;-92
2023/09/12 13:46:40;;;;;;;7.55;6.75;;;;;;;;;;5067099;28;20649;-93
2023/09/12 13:49:07;;;;;;;7.65;6.28;;;;;;;;;;5084120;28;20048;-93
2023/09/12 13:51:39;;;;;;;6.68;6.10;;;;;;;;;;5067454;28;20048;-94
2023/09/12 13:54:14;;;;;;;9.70;5.85;;;;;;;;;;5068644;28;20455;-92
2023/09/12 13:56:46;;;;;;;10.82;6.60;;;;;;;;;;5088170;28;20489;-92
2023/09/12 13:59:13;;;;;;;10.73;8.05;;;;;;;;;;5058636;28;20398;-93
2023/09/12 14:01:41;;;;;;;11.20;6.80;;;;;;;;;;5086406;28;20044;-92
2023/09/12 14:04:09;;;;;;;9.10;5.78;;;;;;;;;;5091943;28;20462;-92
2023/09/12 14:06:37;;;;;;;11.23;6.35;;;;;;;;;;5087914;28;20696;-92
2023/09/12 14:09:05;;;;;;;10.88;5.78;;;;;;;;;;5074385;28;20052;-92
2023/09/12 14:11:34;;;;;;;7.80;5.95;;;;;;;;;;5062148;28;20055;-93
2023/09/12 14:14:01;;;;;;;7.45;5.63;;;;;;;;;;5073634;28;20535;-93
2023/09/12 14:16:29;;;;;;;7.03;6.43;;;;;;;;;;5073765;28;20048;-93
2023/09/12 14:19:18;;;;;;;6.95;6.18;;;;;;;;;;5080496;28;20055;-92
2023/09/12 14:21:45;;;;;;;5.97;5.38;;;;;;;;;;5091168;28;20051;-92
2023/09/12 14:24:14;;;;;;;9.63;6.38;;;;;;;;;;5079391;28;20044;-92
2023/09/12 14:26:42;;;;;;;9.52;5.93;;;;;;;;;;5074436;28;20048;-92
2023/09/12 14:29:11;;;;;;;5.80;5.30;;;;;;;;;;5091648;28;20044;-92
2023/09/12 14:31:49;;;;;;;6.88;5.38;;;;;;;;;;5086997;28;20420;-93
2023/09/12 14:34:16;;;;;;;10.45;6.63;;;;;;;;;;5077544;28;20048;-92
2023/09/12 14:36:47;;;;;;;9.60;6.30;;;;;;;;;;5081526;28;20052;-92
2023/09/12 14:39:19;;;;;;;10.88;6.32;;;;;;;;;;5079266;28;20050;-93
2023/09/12 14:41:59;;;;;;;6.00;5.30;;;;;;;;;;5083045;28;20697;-92
2023/09/12 14:45:01;;;;;;;8.40;6.28;;;;;;;;;;5087449;28;20721;-92
2023/09/12 14:47:39;;;;;;;10.73;5.95;;;;;;;;;;5093575;28;20520;-92
2023/09/12 14:50:25;;;;;;;10.40;6.72;;;;;;;;;;5085545;28;20055;-93
2023/09/12 14:52:53;;;;;;;8.80;7.15;;;;;;;;;;5073644;28;20044;-92
2023/09/12 14:55:27;;;;;;;8.38;5.78;;;;;;;;;;5093339;28;20045;-93